Time;durP1;ratioP1;P1;durP2;ratioP2;P2;SDS_P1;SDS_P2;PMS_P1;PMS_P2;Temp;Humidity;BMP_temperature;BMP_pressure;BME280_temperature;BME280_humidity;BME280_pressure;Samples;Min_cycle;Max_cycle;Signal;HPM_P1;HPM_P2
2022/06/26 00:01:17;;;;;;;5.20;2.37;;;18.60;99.90;;;;;;5044265;28;20436;-73
2022/06/26 00:04:03;;;;;;;2.87;2.33;;;18.60;99.90;;;;;;5046143;28;20466;-72
2022/06/26 00:06:49;;;;;;;4.07;2.00;;;18.70;99.90;;;;;;5061984;28;20563;-72
2022/06/26 00:09:35;;;;;;;5.97;2.83;;;19.10;99.90;;;;;;5048791;28;20441;-72
2022/06/26 00:12:21;;;;;;;3.50;2.40;;;19.40;99.90;;;;;;5059062;28;20788;-72
2022/06/26 00:15:08;;;;;;;5.50;3.00;;;19.80;99.90;;;;;;5053305;28;20447;-72
2022/06/26 00:17:55;;;;;;;3.23;2.40;;;20.00;99.90;;;;;;5049184;28;20444;-73
2022/06/26 00:20:41;;;;;;;3.50;2.20;;;20.20;99.90;;;;;;5047670;28;20467;-73
2022/06/26 00:23:26;;;;;;;3.83;2.57;;;20.30;99.90;;;;;;5042255;28;20420;-72
2022/06/26 00:26:13;;;;;;;4.40;2.00;;;20.40;99.90;;;;;;5051250;28;20432;-72
2022/06/26 00:28:58;;;;;;;3.67;1.97;;;20.40;99.90;;;;;;5060772;28;20417;-72
2022/06/26 00:31:44;;;;;;;6.63;2.17;;;20.50;99.90;;;;;;5052196;28;20442;-73
2022/06/26 00:34:31;;;;;;;4.63;2.00;;;20.50;99.90;;;;;;5054097;28;20867;-72
2022/06/26 00:37:17;;;;;;;3.83;2.40;;;20.50;99.90;;;;;;5055802;28;20443;-73
2022/06/26 00:40:03;;;;;;;4.93;2.30;;;20.50;99.90;;;;;;5049070;28;20522;-73
2022/06/26 00:42:48;;;;;;;4.23;2.57;;;20.40;99.90;;;;;;5052090;28;20443;-74
2022/06/26 00:45:34;;;;;;;7.70;2.40;;;20.30;99.90;;;;;;5050532;28;20646;-73
2022/06/26 00:48:20;;;;;;;5.73;2.40;;;20.20;99.90;;;;;;5046460;28;20509;-72
2022/06/26 00:51:08;;;;;;;8.70;2.37;;;20.20;99.90;;;;;;5044895;28;20471;-72
2022/06/26 00:53:55;;;;;;;3.70;2.23;;;20.00;99.90;;;;;;5048174;28;20447;-72
2022/06/26 00:56:40;;;;;;;3.90;2.20;;;20.00;99.90;;;;;;5047754;28;20435;-72
2022/06/26 00:59:27;;;;;;;3.27;2.17;;;20.00;99.90;;;;;;5041412;28;20471;-72
2022/06/26 01:02:12;;;;;;;11.23;2.33;;;20.10;99.90;;;;;;5046289;28;20518;-72
2022/06/26 01:04:58;;;;;;;7.63;2.40;;;20.00;99.90;;;;;;5048153;28;20557;-72
2022/06/26 01:07:46;;;;;;;8.73;1.97;;;19.90;99.90;;;;;;5050522;28;20510;-72
2022/06/26 01:10:32;;;;;;;4.27;2.10;;;19.70;99.90;;;;;;5044743;28;20483;-72
2022/06/26 01:13:18;;;;;;;2.90;2.03;;;19.70;99.90;;;;;;5053201;28;20435;-73
2022/06/26 01:16:04;;;;;;;3.90;2.40;;;19.60;99.90;;;;;;5048789;28;20956;-73
2022/06/26 01:18:53;;;;;;;5.60;2.40;;;19.60;99.90;;;;;;5048473;28;20476;-73
2022/06/26 01:21:39;;;;;;;6.97;2.27;;;19.60;99.90;;;;;;5045989;28;20432;-72
2022/06/26 01:24:26;;;;;;;4.27;2.00;;;19.50;99.90;;;;;;5044128;28;20447;-72
2022/06/26 01:27:12;;;;;;;3.30;2.50;;;19.50;99.90;;;;;;5043439;28;20817;-73
2022/06/26 01:29:57;;;;;;;4.33;2.07;;;19.50;99.90;;;;;;5044757;28;20475;-72
2022/06/26 01:32:43;;;;;;;4.43;2.13;;;19.30;99.90;;;;;;5051514;28;20807;-72
2022/06/26 01:35:29;;;;;;;2.97;2.20;;;19.30;99.90;;;;;;5048367;28;20519;-72
2022/06/26 01:38:16;;;;;;;8.80;2.50;;;19.40;99.90;;;;;;5049976;28;20627;-74
2022/06/26 01:41:04;;;;;;;3.37;2.00;;;19.40;99.90;;;;;;5041676;28;20523;-73
2022/06/26 01:43:49;;;;;;;3.40;2.27;;;19.40;99.90;;;;;;5045373;28;20470;-72
2022/06/26 01:46:36;;;;;;;4.00;2.30;;;19.40;99.90;;;;;;5049847;28;20445;-73
2022/06/26 01:49:23;;;;;;;3.43;2.10;;;19.40;99.90;;;;;;5041453;28;20463;-72
2022/06/26 01:52:08;;;;;;;5.10;2.70;;;19.40;99.90;;;;;;5049532;28;21013;-72
2022/06/26 01:54:54;;;;;;;3.10;2.10;;;19.40;99.90;;;;;;5047956;28;20444;-72
2022/06/26 01:57:41;;;;;;;3.63;2.10;;;19.50;99.90;;;;;;5055103;28;21697;-72
2022/06/26 02:00:27;;;;;;;5.03;2.10;;;19.50;99.90;;;;;;5051294;28;20820;-73
2022/06/26 02:03:13;;;;;;;8.63;2.50;;;19.50;99.90;;;;;;5051765;28;20805;-72
2022/06/26 02:05:59;;;;;;;5.63;2.23;;;19.50;99.90;;;;;;5050466;28;20459;-72
2022/06/26 02:08:45;;;;;;;8.03;2.70;;;19.40;99.90;;;;;;5045364;28;20489;-72
2022/06/26 02:14:35;;;;;;;5.80;3.00;;;19.30;99.90;;;;;;5050085;28;20439;-72
2022/06/26 02:17:21;;;;;;;2.40;1.73;;;19.30;99.90;;;;;;5050997;28;20580;-73
2022/06/26 02:20:09;;;;;;;4.93;2.33;;;19.30;99.90;;;;;;5051366;28;20832;-72
2022/06/26 02:22:54;;;;;;;7.83;2.03;;;19.30;99.90;;;;;;5051862;28;20514;-72
2022/06/26 02:25:40;;;;;;;3.40;2.00;;;19.20;99.90;;;;;;5047842;28;20506;-73
2022/06/26 02:28:26;;;;;;;4.10;2.20;;;19.20;99.90;;;;;;5049203;28;20974;-72
2022/06/26 02:31:13;;;;;;;4.43;2.30;;;19.30;99.90;;;;;;5048476;28;20474;-72
2022/06/26 02:33:59;;;;;;;9.00;2.30;;;19.30;99.90;;;;;;5052557;28;20420;-72
2022/06/26 02:36:44;;;;;;;4.80;2.37;;;19.40;99.90;;;;;;5051455;28;20439;-72
2022/06/26 02:39:30;;;;;;;5.13;2.20;;;19.50;99.90;;;;;;5046775;28;20463;-73
2022/06/26 02:42:16;;;;;;;6.13;2.20;;;19.60;99.90;;;;;;5053526;28;21014;-73
2022/06/26 02:45:01;;;;;;;5.30;2.13;;;19.50;99.90;;;;;;5055685;28;20447;-72
2022/06/26 02:47:48;;;;;;;2.90;2.10;;;19.50;99.90;;;;;;5047660;28;20461;-72
2022/06/26 02:50:34;;;;;;;3.60;2.20;;;19.60;99.90;;;;;;5055547;28;21007;-71
2022/06/26 02:53:20;;;;;;;4.70;2.07;;;19.60;99.90;;;;;;5050961;28;20432;-72
2022/06/26 02:56:06;;;;;;;2.97;2.30;;;19.60;99.90;;;;;;5052256;28;20439;-72
2022/06/26 02:58:51;;;;;;;3.77;2.27;;;19.50;99.90;;;;;;5048221;28;20458;-72
2022/06/26 03:01:37;;;;;;;4.87;2.27;;;19.40;99.90;;;;;;5048105;28;20470;-72
2022/06/26 03:04:24;;;;;;;5.33;2.00;;;19.40;99.90;;;;;;5055449;28;20849;-72
2022/06/26 03:07:10;;;;;;;3.00;2.10;;;19.50;99.90;;;;;;5050430;28;20447;-71
2022/06/26 03:09:56;;;;;;;3.77;2.07;;;19.50;99.90;;;;;;5049367;28;20463;-73
2022/06/26 03:12:47;;;;;;;35.07;3.27;;;19.40;99.90;;;;;;5060649;28;20428;-72
2022/06/26 03:15:33;;;;;;;3.60;1.93;;;19.40;99.90;;;;;;5050928;28;20947;-72
2022/06/26 03:18:20;;;;;;;2.47;1.97;;;19.30;99.90;;;;;;5048015;28;20949;-72
2022/06/26 03:21:07;;;;;;;4.13;2.20;;;19.30;99.90;;;;;;5061955;28;20431;-72
2022/06/26 03:24:02;;;;;;;4.00;2.00;;;19.30;99.90;;;;;;5055628;28;20451;-72
2022/06/26 03:26:48;;;;;;;4.73;2.50;;;19.30;99.90;;;;;;5058378;28;20435;-73
2022/06/26 03:29:34;;;;;;;3.10;1.90;;;19.30;99.90;;;;;;5055103;28;20418;-73
2022/06/26 03:32:20;;;;;;;6.07;2.13;;;19.30;99.90;;;;;;5052908;28;20493;-73
2022/06/26 03:35:06;;;;;;;3.70;2.20;;;19.30;99.90;;;;;;5051383;28;20447;-72
2022/06/26 03:37:53;;;;;;;3.53;2.00;;;19.30;99.90;;;;;;5041607;28;20436;-73
2022/06/26 03:40:39;;;;;;;4.70;2.30;;;19.40;99.90;;;;;;5043615;28;20598;-73
2022/06/26 03:43:24;;;;;;;6.73;2.43;;;19.30;99.90;;;;;;5058505;28;20962;-73
2022/06/26 03:46:10;;;;;;;4.57;2.33;;;19.30;99.90;;;;;;5051389;28;20567;-73
2022/06/26 03:48:56;;;;;;;5.80;2.60;;;19.20;99.90;;;;;;5044702;28;20549;-73
2022/06/26 03:51:42;;;;;;;7.90;2.77;;;19.20;99.90;;;;;;5048343;28;20566;-73
2022/06/26 03:54:30;;;;;;;2.63;2.07;;;19.30;99.90;;;;;;5047729;28;20493;-72
2022/06/26 03:57:16;;;;;;;3.20;2.37;;;19.20;99.90;;;;;;5047712;28;20559;-72
2022/06/26 04:00:02;;;;;;;6.70;2.07;;;19.10;99.90;;;;;;5051386;28;20475;-73
2022/06/26 04:02:48;;;;;;;8.23;2.23;;;19.10;99.90;;;;;;5055690;28;20434;-73
2022/06/26 04:05:34;;;;;;;3.17;1.93;;;19.10;99.90;;;;;;5049200;28;20965;-73
2022/06/26 04:08:20;;;;;;;5.57;2.40;;;19.10;99.90;;;;;;5044896;28;20442;-73
2022/06/26 04:11:07;;;;;;;3.70;2.43;;;19.10;99.90;;;;;;5052437;28;20825;-73
2022/06/26 04:13:53;;;;;;;3.20;2.20;;;19.00;99.90;;;;;;5055013;28;20815;-73
2022/06/26 04:16:39;;;;;;;3.90;2.00;;;19.00;99.90;;;;;;5045953;28;21059;-72
2022/06/26 04:19:24;;;;;;;2.50;1.97;;;19.00;99.90;;;;;;5046217;28;20491;-73
2022/06/26 04:22:10;;;;;;;6.50;2.13;;;19.10;99.90;;;;;;5052134;28;21106;-73
2022/06/26 04:24:55;;;;;;;5.30;2.20;;;19.00;99.90;;;;;;5045252;28;20452;-73
2022/06/26 04:27:42;;;;;;;5.83;2.03;;;19.10;99.90;;;;;;5043225;28;20418;-73
2022/06/26 04:30:28;;;;;;;4.03;1.60;;;19.00;99.90;;;;;;5050994;28;20827;-73
2022/06/26 04:33:14;;;;;;;3.80;2.40;;;19.10;99.90;;;;;;5051107;28;20960;-73
2022/06/26 04:36:00;;;;;;;3.70;2.03;;;19.10;99.90;;;;;;5050862;28;20418;-74
2022/06/26 04:38:45;;;;;;;2.20;1.77;;;19.10;99.90;;;;;;5043963;28;20517;-73
2022/06/26 04:41:35;;;;;;;5.60;1.93;;;19.10;99.90;;;;;;5049942;28;20946;-73
2022/06/26 04:44:23;;;;;;;6.63;2.20;;;19.10;99.90;;;;;;5050819;28;20533;-73
2022/06/26 04:47:08;;;;;;;3.93;2.00;;;19.20;99.90;;;;;;5043638;28;20443;-72
2022/06/26 04:49:54;;;;;;;5.63;2.23;;;19.30;99.90;;;;;;5049668;28;20519;-73
2022/06/26 04:52:43;;;;;;;6.43;2.40;;;19.30;99.90;;;;;;5048688;28;20446;-73
2022/06/26 04:55:29;;;;;;;3.50;2.53;;;19.40;99.90;;;;;;5049579;28;21044;-73
2022/06/26 04:58:15;;;;;;;6.33;2.50;;;19.30;99.90;;;;;;5045523;28;20463;-73
2022/06/26 05:01:02;;;;;;;4.10;2.20;;;19.30;99.90;;;;;;5048299;28;20429;-72
2022/06/26 05:03:48;;;;;;;4.63;2.23;;;19.30;99.90;;;;;;5050955;28;20435;-72
2022/06/26 05:06:34;;;;;;;3.80;2.43;;;19.20;99.90;;;;;;5042413;28;20494;-72
2022/06/26 05:09:20;;;;;;;2.60;2.30;;;19.10;99.90;;;;;;5050729;28;20449;-73
2022/06/26 05:12:07;;;;;;;3.50;2.00;;;19.10;99.90;;;;;;5047424;28;20471;-72
2022/06/26 05:14:52;;;;;;;3.10;1.73;;;19.00;99.90;;;;;;5050215;28;20699;-72
2022/06/26 05:17:39;;;;;;;3.67;2.40;;;18.90;99.90;;;;;;5046192;28;20549;-72
2022/06/26 05:20:25;;;;;;;2.57;2.17;;;19.10;99.90;;;;;;5086764;22;20501;-73
2022/06/26 05:23:12;;;;;;;3.97;2.30;;;19.30;99.90;;;;;;5089412;28;20438;-73
2022/06/26 05:25:57;;;;;;;6.93;2.23;;;19.50;99.90;;;;;;5084578;28;20489;-73
2022/06/26 05:28:42;;;;;;;7.47;3.10;;;19.70;99.90;;;;;;5088072;28;20980;-74
2022/06/26 05:31:28;;;;;;;3.10;2.30;;;19.80;99.90;;;;;;5067268;28;20458;-73
2022/06/26 05:34:15;;;;;;;3.40;2.63;;;20.00;99.90;;;;;;5075940;28;20441;-74
2022/06/26 05:37:01;;;;;;;3.10;2.43;;;20.10;99.90;;;;;;5062419;28;20577;-73
2022/06/26 05:39:47;;;;;;;4.10;2.70;;;20.20;99.90;;;;;;5074692;28;20450;-73
2022/06/26 05:42:33;;;;;;;4.00;2.63;;;20.40;99.90;;;;;;5077333;28;20433;-73
2022/06/26 05:45:18;;;;;;;5.10;2.23;;;20.50;99.90;;;;;;5070182;28;20446;-73
2022/06/26 05:48:04;;;;;;;3.43;2.40;;;20.60;99.90;;;;;;5066230;28;20505;-74
2022/06/26 05:50:51;;;;;;;3.10;2.17;;;20.70;99.90;;;;;;5071587;28;20458;-74
2022/06/26 05:53:38;;;;;;;2.60;2.20;;;20.80;99.90;;;;;;5067655;28;20456;-74
2022/06/26 05:56:24;;;;;;;3.70;2.07;;;20.90;99.90;;;;;;5067499;28;20800;-73
2022/06/26 05:59:09;;;;;;;7.03;2.10;;;20.80;99.90;;;;;;5067034;28;20593;-74
2022/06/26 06:01:55;;;;;;;6.03;2.73;;;20.90;99.90;;;;;;5068004;28;20480;-74
2022/06/26 06:04:41;;;;;;;3.63;2.20;;;20.80;99.90;;;;;;5071293;28;20446;-74
2022/06/26 06:07:28;;;;;;;3.40;2.30;;;20.90;99.90;;;;;;5067741;28;20463;-74
2022/06/26 06:10:14;;;;;;;4.20;2.53;;;20.90;99.90;;;;;;5074036;28;21037;-74
2022/06/26 06:13:01;;;;;;;3.60;2.30;;;21.00;99.90;;;;;;5072954;28;20556;-74
2022/06/26 06:15:46;;;;;;;2.90;2.27;;;21.00;99.90;;;;;;5076205;28;20454;-74
2022/06/26 06:18:32;;;;;;;3.67;2.07;;;21.10;99.90;;;;;;5072890;28;20583;-74
2022/06/26 06:21:17;;;;;;;4.03;2.03;;;21.20;99.90;;;;;;5072692;28;20445;-74
2022/06/26 06:24:05;;;;;;;6.63;3.03;;;21.30;99.90;;;;;;5070922;28;20491;-74
2022/06/26 06:26:50;;;;;;;3.30;2.60;;;21.40;99.90;;;;;;5070038;28;20573;-74
2022/06/26 06:29:36;;;;;;;3.77;2.37;;;21.30;99.90;;;;;;5072539;28;21113;-73
2022/06/26 06:32:22;;;;;;;2.50;1.97;;;21.40;99.90;;;;;;5072672;28;20605;-74
2022/06/26 06:35:08;;;;;;;4.03;1.90;;;21.40;99.90;;;;;;5064703;28;20955;-74
2022/06/26 06:37:54;;;;;;;3.70;2.23;;;21.50;99.90;;;;;;5071396;28;20464;-74
2022/06/26 06:40:41;;;;;;;4.40;1.70;;;21.60;99.90;;;;;;5071539;28;20832;-74
2022/06/26 06:43:27;;;;;;;2.87;2.17;;;21.60;99.90;;;;;;5071330;28;20433;-73
2022/06/26 06:46:13;;;;;;;2.87;1.80;;;21.60;99.90;;;;;;5069049;28;20450;-74
2022/06/26 06:48:59;;;;;;;2.83;2.20;;;21.70;99.90;;;;;;5073058;28;20532;-74
2022/06/26 06:51:45;;;;;;;3.37;2.10;;;21.70;99.90;;;;;;5070316;28;21007;-74
2022/06/26 06:54:31;;;;;;;3.50;2.10;;;21.80;99.90;;;;;;5067266;28;21183;-74
2022/06/26 06:57:19;;;;;;;3.00;1.67;;;21.90;99.90;;;;;;5070120;28;20912;-74
2022/06/26 07:00:06;;;;;;;2.90;1.83;;;22.10;99.90;;;;;;5071914;28;21015;-74
2022/06/26 07:02:51;;;;;;;3.80;1.83;;;22.20;99.90;;;;;;5075057;28;21078;-74
2022/06/26 07:05:37;;;;;;;4.60;2.10;;;22.30;99.90;;;;;;5068049;28;20539;-74
2022/06/26 07:08:23;;;;;;;3.27;1.90;;;22.10;99.90;;;;;;5078626;28;20854;-74
2022/06/26 07:11:09;;;;;;;3.27;2.03;;;22.00;99.90;;;;;;5072373;28;20450;-74
2022/06/26 07:13:57;;;;;;;3.80;2.30;;;22.10;99.90;;;;;;5074593;28;20430;-74
2022/06/26 07:16:42;;;;;;;3.50;2.10;;;22.20;99.90;;;;;;5076996;28;20434;-74
2022/06/26 07:19:28;;;;;;;2.97;1.50;;;22.00;99.90;;;;;;5069243;28;20486;-74
2022/06/26 07:22:13;;;;;;;5.07;2.23;;;22.10;99.90;;;;;;5071205;28;20528;-74
2022/06/26 07:24:59;;;;;;;3.50;2.00;;;22.10;99.90;;;;;;5067590;28;20651;-74
2022/06/26 07:27:45;;;;;;;3.60;2.60;;;22.00;99.90;;;;;;5069106;28;20455;-74
2022/06/26 07:30:32;;;;;;;4.83;2.77;;;21.90;99.90;;;;;;5070949;28;20521;-74
2022/06/26 07:36:22;;;;;;;4.17;2.30;;;21.70;99.90;;;;;;5066042;28;20473;-74
2022/06/26 07:39:08;;;;;;;5.63;2.50;;;21.60;99.90;;;;;;5081037;28;20469;-74
2022/06/26 07:41:54;;;;;;;6.53;2.60;;;21.50;99.90;;;;;;5069113;28;20446;-74
2022/06/26 07:44:40;;;;;;;4.00;2.20;;;21.60;99.90;;;;;;5066943;28;20569;-74
2022/06/26 07:47:27;;;;;;;4.70;2.10;;;21.90;99.90;;;;;;5071107;28;20815;-74
2022/06/26 07:50:12;;;;;;;7.03;2.20;;;22.10;99.90;;;;;;5071109;28;20467;-74
2022/06/26 07:52:58;;;;;;;3.27;2.40;;;22.50;99.90;;;;;;5074181;28;20460;-74
2022/06/26 07:55:44;;;;;;;5.20;3.33;;;22.60;99.90;;;;;;5068801;28;20473;-73
2022/06/26 07:58:29;;;;;;;6.40;3.40;;;22.50;99.90;;;;;;5068440;28;20924;-74
2022/06/26 08:01:15;;;;;;;6.70;2.70;;;22.40;99.90;;;;;;5073082;28;20501;-73
2022/06/26 08:04:03;;;;;;;5.37;3.97;;;22.40;99.90;;;;;;5075213;28;20433;-73
2022/06/26 08:06:48;;;;;;;4.70;2.80;;;22.40;99.90;;;;;;5069516;28;20843;-73
2022/06/26 08:09:34;;;;;;;3.60;2.90;;;22.30;99.90;;;;;;5067469;28;21024;-73
2022/06/26 08:12:19;;;;;;;5.20;2.83;;;22.40;99.90;;;;;;5076071;28;20467;-74
2022/06/26 08:15:06;;;;;;;4.70;3.47;;;22.50;99.90;;;;;;5067406;28;20458;-74
2022/06/26 08:17:52;;;;;;;6.80;3.80;;;22.70;99.90;;;;;;5072044;28;20516;-74
2022/06/26 08:20:39;;;;;;;4.30;3.10;;;22.80;99.90;;;;;;5069824;28;20564;-73
2022/06/26 08:23:24;;;;;;;3.70;3.10;;;22.80;99.90;;;;;;5066696;28;20442;-74
2022/06/26 08:26:10;;;;;;;3.77;2.90;;;22.90;99.90;;;;;;5063878;28;20948;-74
2022/06/26 08:28:56;;;;;;;5.47;2.93;;;23.20;99.90;;;;;;5071616;28;20606;-74
2022/06/26 08:31:41;;;;;;;4.83;2.70;;;23.40;99.90;;;;;;5072410;28;20465;-74
2022/06/26 08:34:28;;;;;;;7.30;3.50;;;23.40;99.90;;;;;;5070538;28;20447;-74
2022/06/26 08:37:14;;;;;;;6.37;2.87;;;23.30;98.80;;;;;;5074709;28;20482;-74
2022/06/26 08:40:00;;;;;;;2.93;2.23;;;23.30;99.10;;;;;;5079258;28;20979;-74
2022/06/26 08:42:49;;;;;;;2.87;2.30;;;23.40;98.70;;;;;;5075260;28;20562;-74
2022/06/26 08:45:36;;;;;;;3.20;2.53;;;23.30;97.90;;;;;;5068700;28;20445;-74
2022/06/26 08:48:25;;;;;;;3.60;2.30;;;23.30;95.80;;;;;;5071718;28;20818;-74
2022/06/26 08:51:12;;;;;;;2.63;2.10;;;23.50;96.00;;;;;;5070464;28;20471;-74
2022/06/26 08:53:59;;;;;;;3.53;2.33;;;23.50;94.10;;;;;;5067266;28;20439;-74
2022/06/26 08:56:49;;;;;;;2.70;1.90;;;23.60;95.20;;;;;;5069207;28;20450;-74
2022/06/26 08:59:34;;;;;;;4.10;2.13;;;23.80;95.30;;;;;;5070118;28;21105;-74
2022/06/26 09:02:19;;;;;;;6.63;2.20;;;23.80;92.70;;;;;;5065015;28;20577;-74
2022/06/26 09:05:06;;;;;;;4.13;2.20;;;23.90;93.00;;;;;;5066851;28;20510;-74
2022/06/26 09:07:53;;;;;;;2.23;1.70;;;24.20;91.50;;;;;;5069065;28;20450;-74
2022/06/26 09:10:44;;;;;;;4.20;1.57;;;24.30;88.30;;;;;;5069846;28;20616;-74
2022/06/26 09:13:38;;;;;;;2.07;1.17;;;24.40;89.30;;;;;;5064913;28;20998;-74
2022/06/26 09:16:30;;;;;;;2.70;1.87;;;24.40;82.90;;;;;;5072088;28;20446;-74
2022/06/26 09:19:19;;;;;;;3.80;1.60;;;24.40;80.40;;;;;;5068825;28;20502;-74
2022/06/26 09:22:10;;;;;;;2.67;1.53;;;24.50;80.00;;;;;;5071750;28;20573;-74
2022/06/26 09:24:58;;;;;;;3.50;1.40;;;24.70;79.80;;;;;;5068119;28;20450;-74
2022/06/26 09:27:45;;;;;;;6.53;1.80;;;24.50;72.70;;;;;;5074057;28;20815;-74
2022/06/26 09:30:31;;;;;;;2.30;1.50;;;24.50;76.00;;;;;;5067308;28;20462;-74
2022/06/26 09:33:17;;;;;;;2.13;1.23;;;24.70;76.30;;;;;;5065689;28;20470;-74
2022/06/26 09:36:05;;;;;;;3.20;2.30;;;24.80;76.20;;;;;;5067338;28;20434;-74
2022/06/26 09:38:52;;;;;;;2.80;1.17;;;24.80;78.50;;;;;;5069529;28;20438;-74
2022/06/26 09:41:39;;;;;;;2.00;1.20;;;24.80;75.20;;;;;;5066377;28;20910;-74
2022/06/26 09:44:26;;;;;;;2.90;1.33;;;24.70;71.20;;;;;;5064005;28;20842;-74
2022/06/26 09:47:24;;;;;;;2.93;1.40;;;24.50;70.60;;;;;;5074706;28;20454;-74
2022/06/26 09:50:10;;;;;;;2.20;1.40;;;24.50;73.90;;;;;;5072267;28;20463;-74
2022/06/26 09:52:55;;;;;;;1.80;1.20;;;24.40;72.60;;;;;;5068083;28;20528;-74
2022/06/26 09:55:42;;;;;;;3.60;1.30;;;24.50;78.20;;;;;;5063299;28;20461;-74
2022/06/26 09:58:28;;;;;;;2.60;1.43;;;24.70;76.10;;;;;;5067368;28;20443;-74
2022/06/26 10:07:26;;;;;;;6.53;1.97;;;24.80;74.00;;;;;;5069399;28;20489;-74
2022/06/26 10:10:12;;;;;;;2.80;1.37;;;24.80;73.70;;;;;;5064697;28;20592;-74
2022/06/26 10:13:02;;;;;;;2.67;1.40;;;24.70;73.40;;;;;;5068137;28;20478;-74
2022/06/26 10:15:54;;;;;;;8.27;2.30;;;24.60;74.10;;;;;;5067108;28;20462;-74
2022/06/26 10:18:54;;;;;;;2.57;1.60;;;24.70;73.70;;;;;;5057073;28;20451;-73
2022/06/26 10:21:42;;;;;;;4.13;1.50;;;24.70;71.60;;;;;;5066080;28;20576;-72
2022/06/26 10:24:27;;;;;;;4.60;1.80;;;24.60;70.40;;;;;;5066138;28;20446;-73
2022/06/26 10:27:14;;;;;;;5.50;1.73;;;24.70;72.00;;;;;;5073250;28;20447;-72
2022/06/26 10:30:10;;;;;;;1.83;1.10;;;24.80;72.50;;;;;;5072583;28;21014;-73
2022/06/26 10:33:10;;;;;;;5.53;1.60;;;25.10;71.50;;;;;;5071452;28;21321;-73
2022/06/26 10:35:57;;;;;;;9.60;1.70;;;25.30;71.50;;;;;;5072182;28;20936;-73
2022/06/26 10:38:42;;;;;;;3.37;1.80;;;25.60;69.60;;;;;;5071204;28;20937;-72
2022/06/26 10:44:49;;;;;;;1.70;1.00;;;25.90;68.00;;;;;;5068893;28;20438;-72
2022/06/26 10:47:50;;;;;;;2.77;1.20;;;26.00;66.00;;;;;;5072904;28;20492;-72
2022/06/26 10:50:37;;;;;;;4.27;1.20;;;26.10;61.90;;;;;;5074808;28;20464;-73
2022/06/26 10:53:26;;;;;;;2.70;1.50;;;26.20;64.10;;;;;;5068197;28;21012;-73
2022/06/26 10:56:12;;;;;;;4.53;1.50;;;26.30;62.90;;;;;;5071764;28;20812;-73
2022/06/26 10:59:02;;;;;;;3.57;1.30;;;26.40;61.70;;;;;;5074718;28;20897;-72
2022/06/26 11:01:48;;;;;;;2.10;1.07;;;26.50;60.40;;;;;;5072943;28;20487;-73
2022/06/26 11:04:43;;;;;;;2.30;1.10;;;26.60;61.60;;;;;;5077837;28;20468;-72
2022/06/26 11:07:29;;;;;;;2.60;1.37;;;26.70;61.70;;;;;;5070275;28;20426;-73
2022/06/26 11:10:18;;;;;;;2.00;1.10;;;26.40;55.70;;;;;;5078146;28;20450;-73
2022/06/26 11:13:04;;;;;;;4.37;1.33;;;26.30;58.00;;;;;;5068368;28;20478;-73
2022/06/26 11:15:49;;;;;;;4.90;1.93;;;26.30;58.00;;;;;;5070009;28;20633;-73
2022/06/26 11:18:36;;;;;;;2.00;1.20;;;26.20;59.60;;;;;;5075144;28;20561;-72
2022/06/26 11:21:22;;;;;;;2.60;1.00;;;26.00;59.10;;;;;;5086057;22;20491;-72
2022/06/26 11:24:07;;;;;;;2.53;1.23;;;26.00;60.10;;;;;;5071737;28;20430;-72
2022/06/26 11:26:55;;;;;;;4.17;1.23;;;26.10;60.50;;;;;;5076035;28;20442;-72
2022/06/26 11:29:41;;;;;;;2.10;1.10;;;26.30;56.40;;;;;;5068837;28;20439;-72
2022/06/26 11:32:27;;;;;;;2.63;1.13;;;26.60;57.80;;;;;;5061921;28;20525;-75
2022/06/26 11:35:12;;;;;;;1.90;0.90;;;26.90;52.00;;;;;;5069754;28;20426;-75
2022/06/26 11:37:58;;;;;;;2.73;1.40;;;27.00;51.60;;;;;;5071863;28;20441;-75
2022/06/26 11:40:45;;;;;;;1.90;1.10;;;27.20;52.40;;;;;;5075920;28;21110;-75
2022/06/26 11:43:33;;;;;;;3.70;1.40;;;27.50;50.20;;;;;;5067037;28;20431;-75
2022/06/26 11:46:19;;;;;;;1.90;1.00;;;27.40;52.50;;;;;;5070085;28;20831;-76
2022/06/26 11:49:05;;;;;;;2.53;1.13;;;27.30;52.60;;;;;;5066461;28;20451;-75
2022/06/26 11:51:57;;;;;;;4.63;1.63;;;27.10;53.20;;;;;;5067666;28;20911;-73
2022/06/26 11:54:43;;;;;;;2.37;1.20;;;26.90;51.60;;;;;;5068868;28;20435;-76
2022/06/26 11:57:29;;;;;;;2.93;1.00;;;26.90;51.00;;;;;;5071508;28;20520;-75
2022/06/26 12:00:18;;;;;;;2.40;1.20;;;26.70;52.40;;;;;;5076332;28;20454;-75
2022/06/26 12:03:04;;;;;;;2.13;1.30;;;26.70;54.20;;;;;;5083958;28;20441;-75
2022/06/26 12:05:51;;;;;;;2.60;1.50;;;26.90;53.00;;;;;;5058289;28;20429;-75
2022/06/26 12:08:37;;;;;;;3.07;1.23;;;26.80;51.50;;;;;;5076073;28;20419;-75
2022/06/26 12:11:22;;;;;;;1.87;0.73;;;26.90;52.80;;;;;;5075048;28;20573;-76
2022/06/26 12:14:11;;;;;;;2.60;1.27;;;27.10;51.30;;;;;;5066954;28;20554;-75
2022/06/26 12:17:04;;;;;;;2.23;1.13;;;27.10;50.40;;;;;;5077434;28;20509;-75
2022/06/26 12:19:49;;;;;;;3.03;1.37;;;26.90;47.30;;;;;;5065491;28;20460;-75
2022/06/26 12:22:36;;;;;;;2.00;1.10;;;26.60;49.30;;;;;;5062976;28;20447;-75
2022/06/26 12:25:29;;;;;;;3.50;1.40;;;26.70;51.50;;;;;;5067273;28;20427;-76
2022/06/26 12:28:22;;;;;;;1.80;1.10;;;26.80;49.90;;;;;;5075856;28;20585;-75
2022/06/26 12:31:08;;;;;;;5.30;1.00;;;26.90;50.00;;;;;;5078146;28;20446;-76
2022/06/26 12:33:54;;;;;;;2.33;1.40;;;27.20;50.80;;;;;;5066158;28;20975;-76
2022/06/26 12:36:40;;;;;;;3.80;1.00;;;27.60;48.80;;;;;;5070379;28;20423;-75
2022/06/26 12:39:26;;;;;;;7.23;1.23;;;27.50;45.70;;;;;;5071626;28;20477;-75
2022/06/26 12:42:11;;;;;;;1.93;1.10;;;27.20;45.20;;;;;;5054314;28;20451;-75
2022/06/26 12:44:57;;;;;;;4.00;1.20;;;27.20;46.70;;;;;;5076568;28;20461;-76
2022/06/26 12:47:43;;;;;;;1.63;0.80;;;27.30;49.50;;;;;;5079624;28;20426;-76
2022/06/26 12:50:30;;;;;;;1.90;1.07;;;27.30;47.40;;;;;;5061834;28;20583;-76
2022/06/26 12:53:16;;;;;;;4.23;1.17;;;27.30;47.10;;;;;;5071253;28;20935;-76
2022/06/26 12:56:02;;;;;;;3.87;1.37;;;27.30;48.30;;;;;;5077631;28;21038;-76
2022/06/26 12:58:48;;;;;;;3.30;1.20;;;27.40;46.80;;;;;;5081935;28;20464;-76
2022/06/26 13:01:34;;;;;;;2.50;1.40;;;27.20;46.70;;;;;;5055442;28;20450;-75
2022/06/26 13:04:19;;;;;;;3.50;1.17;;;27.10;48.00;;;;;;5078587;28;20423;-75
2022/06/26 13:07:06;;;;;;;2.73;1.17;;;27.10;49.20;;;;;;5082620;28;20516;-75
2022/06/26 13:09:52;;;;;;;2.30;1.10;;;27.00;46.50;;;;;;5075976;28;20439;-76
2022/06/26 13:12:38;;;;;;;3.03;1.20;;;26.80;46.80;;;;;;5066761;28;20443;-77
2022/06/26 13:15:24;;;;;;;2.43;1.10;;;26.90;49.10;;;;;;5082297;28;20476;-75
2022/06/26 13:18:10;;;;;;;2.63;1.00;;;26.80;49.20;;;;;;5077187;28;20442;-75
2022/06/26 13:20:56;;;;;;;2.37;1.20;;;26.70;48.20;;;;;;5070625;28;20478;-75
2022/06/26 13:23:42;;;;;;;2.83;1.20;;;26.80;50.50;;;;;;5067010;28;20418;-76
2022/06/26 13:26:28;;;;;;;2.70;1.13;;;26.90;52.70;;;;;;5074788;28;20414;-76
2022/06/26 13:29:14;;;;;;;2.93;1.10;;;27.10;49.50;;;;;;5083855;28;20515;-76
2022/06/26 13:31:59;;;;;;;2.20;1.37;;;27.20;49.60;;;;;;5058958;28;20556;-75
2022/06/26 13:34:45;;;;;;;2.50;1.20;;;27.40;50.60;;;;;;5072405;28;20475;-76
2022/06/26 13:37:30;;;;;;;1.90;1.20;;;27.40;47.20;;;;;;5066657;28;20969;-76
2022/06/26 13:40:17;;;;;;;2.10;0.87;;;27.40;49.80;;;;;;5064915;28;20573;-76
2022/06/26 13:43:03;;;;;;;2.00;1.10;;;27.50;47.10;;;;;;5063772;28;20524;-76
2022/06/26 13:45:49;;;;;;;2.83;1.20;;;27.40;48.60;;;;;;5070512;28;20549;-76
2022/06/26 13:48:35;;;;;;;4.23;1.20;;;27.50;50.40;;;;;;5082825;28;20418;-76
2022/06/26 13:51:20;;;;;;;2.13;1.23;;;27.80;47.20;;;;;;5082317;28;20462;-76
2022/06/26 13:54:06;;;;;;;2.83;1.40;;;28.10;46.70;;;;;;5070939;28;20593;-75
2022/06/26 13:56:53;;;;;;;1.80;0.87;;;28.30;47.60;;;;;;5078525;28;20441;-76
2022/06/26 13:59:39;;;;;;;2.70;1.20;;;28.50;41.70;;;;;;5069509;28;20418;-76
2022/06/26 14:02:25;;;;;;;2.10;1.20;;;28.30;41.20;;;;;;5055727;28;20951;-75
2022/06/26 14:05:10;;;;;;;2.73;1.47;;;28.60;42.90;;;;;;5063649;28;20956;-75
2022/06/26 14:07:56;;;;;;;6.30;1.27;;;28.50;42.30;;;;;;5083663;28;20793;-72
2022/06/26 14:10:42;;;;;;;3.40;1.13;;;28.60;41.90;;;;;;5080587;28;20454;-73
2022/06/26 14:13:29;;;;;;;3.13;1.17;;;28.60;43.60;;;;;;5067456;28;20498;-73
2022/06/26 14:16:15;;;;;;;2.50;1.30;;;28.60;41.40;;;;;;5072232;28;21009;-73
2022/06/26 14:19:00;;;;;;;2.50;1.20;;;28.40;40.50;;;;;;5074203;28;20466;-72
2022/06/26 14:25:55;;;;;;;2.63;1.40;;;28.10;41.90;;;;;;5071924;28;20552;-73
2022/06/26 14:27:56;;;;;;;3.00;1.50;;;27.80;43.40;;;;;;5069390;28;21025;-73
2022/06/26 14:30:43;;;;;;;2.10;1.07;;;27.80;45.50;;;;;;5073496;28;20481;-73
2022/06/26 14:33:30;;;;;;;3.40;1.30;;;27.60;43.40;;;;;;5067638;28;21031;-72
2022/06/26 14:36:16;;;;;;;2.40;1.17;;;27.50;45.30;;;;;;5071755;28;20520;-73
2022/06/26 14:39:03;;;;;;;7.13;1.30;;;27.30;46.80;;;;;;5074016;28;20446;-72
2022/06/26 14:41:48;;;;;;;1.97;1.03;;;27.30;46.80;;;;;;5071865;28;20438;-73
2022/06/26 14:44:34;;;;;;;3.03;1.13;;;27.10;48.80;;;;;;5075994;28;20484;-72
2022/06/26 14:47:21;;;;;;;3.80;1.30;;;27.00;49.40;;;;;;5072424;28;21223;-72